sensor_id;sensor_type;location;lat;lon;timestamp;temperature;humidity
76040;SHT30;64736;50.462;4.850;2022-10-31T00:01:22;13.50;90.15
76040;SHT30;64736;50.462;4.850;2022-10-31T00:03:48;13.67;89.64
76040;SHT30;64736;50.462;4.850;2022-10-31T00:06:15;13.55;90.13
76040;SHT30;64736;50.462;4.850;2022-10-31T00:08:47;13.53;90.32
76040;SHT30;64736;50.462;4.850;2022-10-31T00:11:13;13.46;90.67
76040;SHT30;64736;50.462;4.850;2022-10-31T00:13:38;13.44;90.97
76040;SHT30;64736;50.462;4.850;2022-10-31T00:16:05;13.46;90.98
76040;SHT30;64736;50.462;4.850;2022-10-31T00:18:30;13.54;90.44
76040;SHT30;64736;50.462;4.850;2022-10-31T00:21:03;13.65;89.59
76040;SHT30;64736;50.462;4.850;2022-10-31T00:23:29;13.62;89.63
76040;SHT30;64736;50.462;4.850;2022-10-31T00:26:00;13.58;89.92
76040;SHT30;64736;50.462;4.850;2022-10-31T00:28:27;13.69;89.49
76040;SHT30;64736;50.462;4.850;2022-10-31T00:30:52;13.92;88.19
76040;SHT30;64736;50.462;4.850;2022-10-31T00:33:18;13.94;88.21
76040;SHT30;64736;50.462;4.850;2022-10-31T00:35:50;13.90;88.18
76040;SHT30;64736;50.462;4.850;2022-10-31T00:38:16;13.68;89.12
76040;SHT30;64736;50.462;4.850;2022-10-31T00:40:41;13.61;89.52
76040;SHT30;64736;50.462;4.850;2022-10-31T00:43:08;13.33;90.72
76040;SHT30;64736;50.462;4.850;2022-10-31T00:45:34;13.30;91.16
76040;SHT30;64736;50.462;4.850;2022-10-31T00:47:59;13.28;91.32
76040;SHT30;64736;50.462;4.850;2022-10-31T00:50:25;13.19;91.59
76040;SHT30;64736;50.462;4.850;2022-10-31T00:52:51;13.27;91.19
76040;SHT30;64736;50.462;4.850;2022-10-31T00:55:17;13.31;90.57
76040;SHT30;64736;50.462;4.850;2022-10-31T00:57:42;13.34;90.48
76040;SHT30;64736;50.462;4.850;2022-10-31T01:00:11;13.67;89.19
76040;SHT30;64736;50.462;4.850;2022-10-31T01:02:37;13.95;87.63
76040;SHT30;64736;50.462;4.850;2022-10-31T01:05:03;13.86;87.59
76040;SHT30;64736;50.462;4.850;2022-10-31T01:07:29;13.79;88.17
76040;SHT30;64736;50.462;4.850;2022-10-31T01:09:54;13.64;88.63
76040;SHT30;64736;50.462;4.850;2022-10-31T01:12:20;13.71;88.53
76040;SHT30;64736;50.462;4.850;2022-10-31T01:14:46;13.67;88.42
76040;SHT30;64736;50.462;4.850;2022-10-31T01:17:13;13.51;88.79
76040;SHT30;64736;50.462;4.850;2022-10-31T01:19:38;13.41;89.57
76040;SHT30;64736;50.462;4.850;2022-10-31T01:22:04;13.31;90.06
76040;SHT30;64736;50.462;4.850;2022-10-31T01:24:30;13.34;89.90
76040;SHT30;64736;50.462;4.850;2022-10-31T01:26:56;13.58;88.53
76040;SHT30;64736;50.462;4.850;2022-10-31T01:29:21;13.75;87.68
76040;SHT30;64736;50.462;4.850;2022-10-31T01:31:47;13.68;87.98
76040;SHT30;64736;50.462;4.850;2022-10-31T01:34:14;13.65;87.94
76040;SHT30;64736;50.462;4.850;2022-10-31T01:36:41;13.46;88.59
76040;SHT30;64736;50.462;4.850;2022-10-31T01:39:10;13.58;88.14
76040;SHT30;64736;50.462;4.850;2022-10-31T01:41:38;13.38;88.76
76040;SHT30;64736;50.462;4.850;2022-10-31T01:46:57;13.47;88.39
76040;SHT30;64736;50.462;4.850;2022-10-31T01:49:51;13.41;88.39
76040;SHT30;64736;50.462;4.850;2022-10-31T01:52:34;13.30;88.83
76040;SHT30;64736;50.462;4.850;2022-10-31T01:55:41;13.17;89.51
76040;SHT30;64736;50.462;4.850;2022-10-31T01:58:09;12.90;90.85
76040;SHT30;64736;50.462;4.850;2022-10-31T02:00:36;12.79;91.68
76040;SHT30;64736;50.462;4.850;2022-10-31T02:03:02;12.81;91.50
76040;SHT30;64736;50.462;4.850;2022-10-31T02:05:29;12.73;92.16
76040;SHT30;64736;50.462;4.850;2022-10-31T02:08:09;12.72;92.00
76040;SHT30;64736;50.462;4.850;2022-10-31T02:10:38;12.73;91.82
76040;SHT30;64736;50.462;4.850;2022-10-31T02:13:07;12.88;91.14
76040;SHT30;64736;50.462;4.850;2022-10-31T02:15:33;12.89;90.93
76040;SHT30;64736;50.462;4.850;2022-10-31T02:18:00;12.95;90.55
76040;SHT30;64736;50.462;4.850;2022-10-31T02:20:33;12.99;90.10
76040;SHT30;64736;50.462;4.850;2022-10-31T02:26:30;12.68;91.99
76040;SHT30;64736;50.462;4.850;2022-10-31T02:29:16;12.66;92.21
76040;SHT30;64736;50.462;4.850;2022-10-31T02:40:36;12.68;92.15
76040;SHT30;64736;50.462;4.850;2022-10-31T02:43:12;12.75;91.71
76040;SHT30;64736;50.462;4.850;2022-10-31T02:48:46;12.99;90.12
76040;SHT30;64736;50.462;4.850;2022-10-31T02:51:14;12.82;90.76
76040;SHT30;64736;50.462;4.850;2022-10-31T02:53:40;12.75;91.40
76040;SHT30;64736;50.462;4.850;2022-10-31T02:56:12;12.62;92.03
76040;SHT30;64736;50.462;4.850;2022-10-31T02:59:02;12.58;92.28
76040;SHT30;64736;50.462;4.850;2022-10-31T03:15:29;12.68;91.30
76040;SHT30;64736;50.462;4.850;2022-10-31T03:20:55;12.28;92.44
76040;SHT30;64736;50.462;4.850;2022-10-31T03:23:24;12.59;91.49
76040;SHT30;64736;50.462;4.850;2022-10-31T03:25:53;12.73;90.09
76040;SHT30;64736;50.462;4.850;2022-10-31T03:28:25;12.61;90.45
76040;SHT30;64736;50.462;4.850;2022-10-31T03:30:53;12.59;90.62
76040;SHT30;64736;50.462;4.850;2022-10-31T03:33:27;12.65;90.25
76040;SHT30;64736;50.462;4.850;2022-10-31T03:35:55;12.56;90.39
76040;SHT30;64736;50.462;4.850;2022-10-31T03:38:22;12.61;90.32
76040;SHT30;64736;50.462;4.850;2022-10-31T03:40:51;12.58;90.39
76040;SHT30;64736;50.462;4.850;2022-10-31T03:43:24;12.61;90.18
76040;SHT30;64736;50.462;4.850;2022-10-31T03:45:52;12.54;90.37
76040;SHT30;64736;50.462;4.850;2022-10-31T03:48:19;12.38;90.99
76040;SHT30;64736;50.462;4.850;2022-10-31T03:50:48;12.14;91.83
76040;SHT30;64736;50.462;4.850;2022-10-31T03:56:00;12.14;92.37
76040;SHT30;64736;50.462;4.850;2022-10-31T03:58:34;12.42;91.17
76040;SHT30;64736;50.462;4.850;2022-10-31T04:01:06;12.27;91.98
76040;SHT30;64736;50.462;4.850;2022-10-31T04:03:36;12.13;92.28
76040;SHT30;64736;50.462;4.850;2022-10-31T04:06:06;12.00;92.88
76040;SHT30;64736;50.462;4.850;2022-10-31T04:08:39;12.00;92.95
76040;SHT30;64736;50.462;4.850;2022-10-31T04:11:08;12.20;92.22
76040;SHT30;64736;50.462;4.850;2022-10-31T04:13:37;12.23;91.59
76040;SHT30;64736;50.462;4.850;2022-10-31T04:16:05;12.01;92.50
76040;SHT30;64736;50.462;4.850;2022-10-31T04:18:33;11.96;92.89
76040;SHT30;64736;50.462;4.850;2022-10-31T04:21:01;11.98;92.81
76040;SHT30;64736;50.462;4.850;2022-10-31T04:23:27;12.01;92.76
76040;SHT30;64736;50.462;4.850;2022-10-31T04:25:53;12.07;92.34
76040;SHT30;64736;50.462;4.850;2022-10-31T04:28:19;11.91;92.86
76040;SHT30;64736;50.462;4.850;2022-10-31T04:30:44;11.80;93.73
76040;SHT30;64736;50.462;4.850;2022-10-31T04:33:10;12.24;91.50
76040;SHT30;64736;50.462;4.850;2022-10-31T04:35:36;12.40;90.76
76040;SHT30;64736;50.462;4.850;2022-10-31T04:38:02;12.18;91.87
76040;SHT30;64736;50.462;4.850;2022-10-31T04:40:27;12.07;92.61
76040;SHT30;64736;50.462;4.850;2022-10-31T04:42:53;12.10;92.77
76040;SHT30;64736;50.462;4.850;2022-10-31T04:45:19;12.00;93.10
76040;SHT30;64736;50.462;4.850;2022-10-31T04:47:45;11.93;93.38
76040;SHT30;64736;50.462;4.850;2022-10-31T04:50:10;11.90;93.61
76040;SHT30;64736;50.462;4.850;2022-10-31T04:52:40;11.96;93.29
76040;SHT30;64736;50.462;4.850;2022-10-31T04:55:06;12.04;93.22
76040;SHT30;64736;50.462;4.850;2022-10-31T04:57:39;11.91;93.59
76040;SHT30;64736;50.462;4.850;2022-10-31T05:00:06;11.87;93.96
76040;SHT30;64736;50.462;4.850;2022-10-31T05:02:32;11.97;93.56
76040;SHT30;64736;50.462;4.850;2022-10-31T05:04:57;11.98;93.35
76040;SHT30;64736;50.462;4.850;2022-10-31T05:07:23;11.96;93.56
76040;SHT30;64736;50.462;4.850;2022-10-31T05:09:49;11.97;93.66
76040;SHT30;64736;50.462;4.850;2022-10-31T05:12:14;12.08;93.27
76040;SHT30;64736;50.462;4.850;2022-10-31T05:14:40;12.37;91.92
76040;SHT30;64736;50.462;4.850;2022-10-31T05:17:06;12.27;92.15
76040;SHT30;64736;50.462;4.850;2022-10-31T05:19:31;12.40;92.18
76040;SHT30;64736;50.462;4.850;2022-10-31T05:21:57;12.18;93.00
76040;SHT30;64736;50.462;4.850;2022-10-31T05:24:23;12.13;93.22
76040;SHT30;64736;50.462;4.850;2022-10-31T05:26:49;12.06;93.33
76040;SHT30;64736;50.462;4.850;2022-10-31T05:29:15;12.27;92.27
76040;SHT30;64736;50.462;4.850;2022-10-31T05:31:40;12.35;91.42
76040;SHT30;64736;50.462;4.850;2022-10-31T05:34:06;12.07;92.44
76040;SHT30;64736;50.462;4.850;2022-10-31T05:36:32;12.20;91.91
76040;SHT30;64736;50.462;4.850;2022-10-31T05:38:57;12.23;91.63
76040;SHT30;64736;50.462;4.850;2022-10-31T05:41:23;12.23;91.45
76040;SHT30;64736;50.462;4.850;2022-10-31T05:43:49;11.86;92.97
76040;SHT30;64736;50.462;4.850;2022-10-31T05:46:14;11.85;93.27
76040;SHT30;64736;50.462;4.850;2022-10-31T05:48:40;11.82;93.46
76040;SHT30;64736;50.462;4.850;2022-10-31T05:51:06;12.18;91.35
76040;SHT30;64736;50.462;4.850;2022-10-31T05:53:32;12.30;90.69
76040;SHT30;64736;50.462;4.850;2022-10-31T05:55:57;12.30;90.83
76040;SHT30;64736;50.462;4.850;2022-10-31T05:58:23;12.23;91.10
76040;SHT30;64736;50.462;4.850;2022-10-31T06:00:49;11.82;92.86
76040;SHT30;64736;50.462;4.850;2022-10-31T06:03:14;11.77;93.51
76040;SHT30;64736;50.462;4.850;2022-10-31T06:05:40;11.93;92.33
76040;SHT30;64736;50.462;4.850;2022-10-31T06:08:06;11.97;92.32
76040;SHT30;64736;50.462;4.850;2022-10-31T06:10:31;12.06;92.30
76040;SHT30;64736;50.462;4.850;2022-10-31T06:12:57;12.20;91.16
76040;SHT30;64736;50.462;4.850;2022-10-31T06:15:23;12.14;91.65
76040;SHT30;64736;50.462;4.850;2022-10-31T06:17:58;12.01;92.18
76040;SHT30;64736;50.462;4.850;2022-10-31T06:20:24;11.85;92.97
76040;SHT30;64736;50.462;4.850;2022-10-31T06:22:49;11.90;93.00
76040;SHT30;64736;50.462;4.850;2022-10-31T06:25:15;11.58;93.81
76040;SHT30;64736;50.462;4.850;2022-10-31T06:27:41;11.54;94.40
76040;SHT30;64736;50.462;4.850;2022-10-31T06:30:07;11.58;94.32
76040;SHT30;64736;50.462;4.850;2022-10-31T06:32:33;11.63;94.37
76040;SHT30;64736;50.462;4.850;2022-10-31T06:34:58;11.82;93.53
76040;SHT30;64736;50.462;4.850;2022-10-31T06:37:24;11.80;94.41
76040;SHT30;64736;50.462;4.850;2022-10-31T06:39:50;11.82;93.94
76040;SHT30;64736;50.462;4.850;2022-10-31T06:42:16;12.14;92.38
76040;SHT30;64736;50.462;4.850;2022-10-31T06:44:42;12.18;91.90
76040;SHT30;64736;50.462;4.850;2022-10-31T06:47:07;12.12;92.54
76040;SHT30;64736;50.462;4.850;2022-10-31T06:49:33;11.98;93.05
76040;SHT30;64736;50.462;4.850;2022-10-31T06:51:59;11.90;93.66
76040;SHT30;64736;50.462;4.850;2022-10-31T06:54:24;12.06;93.23
76040;SHT30;64736;50.462;4.850;2022-10-31T06:56:50;12.40;91.50
76040;SHT30;64736;50.462;4.850;2022-10-31T06:59:16;12.27;92.26
76040;SHT30;64736;50.462;4.850;2022-10-31T07:01:41;11.89;93.57
76040;SHT30;64736;50.462;4.850;2022-10-31T07:04:09;11.79;94.11
76040;SHT30;64736;50.462;4.850;2022-10-31T07:06:35;11.75;94.08
76040;SHT30;64736;50.462;4.850;2022-10-31T07:09:01;11.72;94.31
76040;SHT30;64736;50.462;4.850;2022-10-31T07:11:27;11.75;94.38
76040;SHT30;64736;50.462;4.850;2022-10-31T07:13:52;11.83;94.16
76040;SHT30;64736;50.462;4.850;2022-10-31T07:16:18;11.83;94.09
76040;SHT30;64736;50.462;4.850;2022-10-31T07:18:43;11.79;94.22
76040;SHT30;64736;50.462;4.850;2022-10-31T07:21:09;11.85;94.12
76040;SHT30;64736;50.462;4.850;2022-10-31T07:23:34;11.93;93.99
76040;SHT30;64736;50.462;4.850;2022-10-31T07:26:00;12.01;93.80
76040;SHT30;64736;50.462;4.850;2022-10-31T07:28:26;11.93;94.14
76040;SHT30;64736;50.462;4.850;2022-10-31T07:30:54;11.94;94.47
76040;SHT30;64736;50.462;4.850;2022-10-31T07:33:20;12.14;94.00
76040;SHT30;64736;50.462;4.850;2022-10-31T07:35:46;12.33;93.55
76040;SHT30;64736;50.462;4.850;2022-10-31T07:38:13;12.38;93.07
76040;SHT30;64736;50.462;4.850;2022-10-31T07:40:39;12.42;93.10
76040;SHT30;64736;50.462;4.850;2022-10-31T07:43:05;12.35;93.34
76040;SHT30;64736;50.462;4.850;2022-10-31T07:45:31;12.30;93.43
76040;SHT30;64736;50.462;4.850;2022-10-31T07:47:56;12.30;93.32
76040;SHT30;64736;50.462;4.850;2022-10-31T07:50:29;12.38;92.95
76040;SHT30;64736;50.462;4.850;2022-10-31T07:53:07;12.33;92.80
76040;SHT30;64736;50.462;4.850;2022-10-31T07:55:34;12.33;92.92
76040;SHT30;64736;50.462;4.850;2022-10-31T07:58:03;12.44;92.56
76040;SHT30;64736;50.462;4.850;2022-10-31T08:00:29;12.89;90.93
76040;SHT30;64736;50.462;4.850;2022-10-31T08:02:59;12.69;91.38
76040;SHT30;64736;50.462;4.850;2022-10-31T08:05:24;12.52;91.74
76040;SHT30;64736;50.462;4.850;2022-10-31T08:07:50;12.56;91.70
76040;SHT30;64736;50.462;4.850;2022-10-31T08:10:15;12.66;91.55
76040;SHT30;64736;50.462;4.850;2022-10-31T08:12:41;12.59;91.72
76040;SHT30;64736;50.462;4.850;2022-10-31T08:15:07;12.73;91.54
76040;SHT30;64736;50.462;4.850;2022-10-31T08:17:35;12.68;91.45
76040;SHT30;64736;50.462;4.850;2022-10-31T08:20:03;12.63;91.62
76040;SHT30;64736;50.462;4.850;2022-10-31T08:22:29;12.59;91.80
76040;SHT30;64736;50.462;4.850;2022-10-31T08:24:54;12.58;91.90
76040;SHT30;64736;50.462;4.850;2022-10-31T08:27:20;12.61;91.59
76040;SHT30;64736;50.462;4.850;2022-10-31T08:29:45;12.62;91.72
76040;SHT30;64736;50.462;4.850;2022-10-31T08:32:11;12.61;91.57
76040;SHT30;64736;50.462;4.850;2022-10-31T08:34:37;12.65;91.47
76040;SHT30;64736;50.462;4.850;2022-10-31T08:37:02;12.81;90.90
76040;SHT30;64736;50.462;4.850;2022-10-31T08:39:28;12.82;90.93
76040;SHT30;64736;50.462;4.850;2022-10-31T08:41:53;12.85;90.76
76040;SHT30;64736;50.462;4.850;2022-10-31T08:44:19;12.99;90.45
76040;SHT30;64736;50.462;4.850;2022-10-31T08:46:45;13.10;90.05
76040;SHT30;64736;50.462;4.850;2022-10-31T08:49:10;13.04;90.23
76040;SHT30;64736;50.462;4.850;2022-10-31T08:51:36;13.17;89.71
76040;SHT30;64736;50.462;4.850;2022-10-31T08:54:02;13.20;89.63
76040;SHT30;64736;50.462;4.850;2022-10-31T08:56:27;13.41;88.87
76040;SHT30;64736;50.462;4.850;2022-10-31T08:58:53;13.44;88.99
76040;SHT30;64736;50.462;4.850;2022-10-31T09:01:19;13.59;88.38
76040;SHT30;64736;50.462;4.850;2022-10-31T09:03:45;13.54;88.48
76040;SHT30;64736;50.462;4.850;2022-10-31T09:06:10;13.83;87.46
76040;SHT30;64736;50.462;4.850;2022-10-31T09:08:36;14.27;86.59
76040;SHT30;64736;50.462;4.850;2022-10-31T09:11:03;13.95;87.13
76040;SHT30;64736;50.462;4.850;2022-10-31T09:13:29;13.89;86.87
76040;SHT30;64736;50.462;4.850;2022-10-31T09:15:56;13.90;87.12
76040;SHT30;64736;50.462;4.850;2022-10-31T09:18:23;13.86;87.20
76040;SHT30;64736;50.462;4.850;2022-10-31T09:20:49;13.88;87.03
76040;SHT30;64736;50.462;4.850;2022-10-31T09:23:18;14.09;86.61
76040;SHT30;64736;50.462;4.850;2022-10-31T09:25:45;14.38;85.40
76040;SHT30;64736;50.462;4.850;2022-10-31T09:28:13;14.53;84.87
76040;SHT30;64736;50.462;4.850;2022-10-31T09:30:39;14.61;84.53
76040;SHT30;64736;50.462;4.850;2022-10-31T09:33:12;14.64;84.68
76040;SHT30;64736;50.462;4.850;2022-10-31T09:35:39;14.74;84.13
76040;SHT30;64736;50.462;4.850;2022-10-31T09:38:16;14.59;84.83
76040;SHT30;64736;50.462;4.850;2022-10-31T09:47:37;14.78;84.24
76040;SHT30;64736;50.462;4.850;2022-10-31T09:50:14;14.80;83.89
76040;SHT30;64736;50.462;4.850;2022-10-31T09:52:44;14.96;83.19
76040;SHT30;64736;50.462;4.850;2022-10-31T09:55:20;15.23;82.33
76040;SHT30;64736;50.462;4.850;2022-10-31T09:57:47;15.38;81.07
76040;SHT30;64736;50.462;4.850;2022-10-31T10:00:19;15.43;80.83
76040;SHT30;64736;50.462;4.850;2022-10-31T10:02:49;15.56;80.24
76040;SHT30;64736;50.462;4.850;2022-10-31T10:05:21;15.43;80.65
76040;SHT30;64736;50.462;4.850;2022-10-31T10:21:39;15.97;78.76
76040;SHT30;64736;50.462;4.850;2022-10-31T10:29:44;16.59;76.61
76040;SHT30;64736;50.462;4.850;2022-10-31T10:32:18;16.69;76.45
76040;SHT30;64736;50.462;4.850;2022-10-31T10:34:52;16.67;76.35
76040;SHT30;64736;50.462;4.850;2022-10-31T10:37:24;16.83;75.95
76040;SHT30;64736;50.462;4.850;2022-10-31T10:39:54;16.66;76.84
76040;SHT30;64736;50.462;4.850;2022-10-31T10:42:22;16.97;75.74
76040;SHT30;64736;50.462;4.850;2022-10-31T10:45:17;17.03;75.53
76040;SHT30;64736;50.462;4.850;2022-10-31T10:48:16;17.14;75.35
76040;SHT30;64736;50.462;4.850;2022-10-31T10:50:48;17.38;74.41
76040;SHT30;64736;50.462;4.850;2022-10-31T10:53:22;17.43;74.29
76040;SHT30;64736;50.462;4.850;2022-10-31T10:56:03;17.41;74.14
76040;SHT30;64736;50.462;4.850;2022-10-31T10:58:33;17.35;74.81
76040;SHT30;64736;50.462;4.850;2022-10-31T11:00:58;17.41;74.08
76040;SHT30;64736;50.462;4.850;2022-10-31T11:03:24;17.82;73.07
76040;SHT30;64736;50.462;4.850;2022-10-31T11:05:52;17.89;72.76
76040;SHT30;64736;50.462;4.850;2022-10-31T11:08:35;17.86;72.34
76040;SHT30;64736;50.462;4.850;2022-10-31T11:13:58;18.17;70.91
76040;SHT30;64736;50.462;4.850;2022-10-31T11:18:50;17.53;73.60
76040;SHT30;64736;50.462;4.850;2022-10-31T11:21:29;17.39;73.84
76040;SHT30;64736;50.462;4.850;2022-10-31T11:26:40;17.46;73.41
76040;SHT30;64736;50.462;4.850;2022-10-31T11:31:39;17.59;73.03
76040;SHT30;64736;50.462;4.850;2022-10-31T11:34:12;17.56;72.73
76040;SHT30;64736;50.462;4.850;2022-10-31T11:36:42;17.68;72.45
76040;SHT30;64736;50.462;4.850;2022-10-31T11:39:18;17.73;72.05
76040;SHT30;64736;50.462;4.850;2022-10-31T11:41:46;17.75;71.73
76040;SHT30;64736;50.462;4.850;2022-10-31T11:44:33;17.94;70.63
76040;SHT30;64736;50.462;4.850;2022-10-31T11:47:03;18.03;70.92
76040;SHT30;64736;50.462;4.850;2022-10-31T11:49:37;18.40;71.71
76040;SHT30;64736;50.462;4.850;2022-10-31T11:52:26;18.16;70.96
76040;SHT30;64736;50.462;4.850;2022-10-31T11:55:14;18.24;71.14
76040;SHT30;64736;50.462;4.850;2022-10-31T11:57:43;18.21;70.46
76040;SHT30;64736;50.462;4.850;2022-10-31T12:00:38;17.99;70.91
76040;SHT30;64736;50.462;4.850;2022-10-31T12:05:39;18.09;70.75
76040;SHT30;64736;50.462;4.850;2022-10-31T12:08:08;18.30;70.37
76040;SHT30;64736;50.462;4.850;2022-10-31T12:16:36;18.37;70.19
76040;SHT30;64736;50.462;4.850;2022-10-31T22:17:17;17.17;74.73
76040;SHT30;64736;50.462;4.850;2022-10-31T22:19:43;17.34;75.33
76040;SHT30;64736;50.462;4.850;2022-10-31T22:22:10;18.01;77.31
76040;SHT30;64736;50.462;4.850;2022-10-31T22:24:36;18.85;74.11
76040;SHT30;64736;50.462;4.850;2022-10-31T22:27:02;19.14;73.12
76040;SHT30;64736;50.462;4.850;2022-10-31T22:29:27;19.13;73.14
76040;SHT30;64736;50.462;4.850;2022-10-31T22:31:53;18.98;69.70
76040;SHT30;64736;50.462;4.850;2022-10-31T22:34:18;17.89;73.26
76040;SHT30;64736;50.462;4.850;2022-10-31T22:36:44;17.42;75.33
76040;SHT30;64736;50.462;4.850;2022-10-31T22:39:11;17.20;76.47
76040;SHT30;64736;50.462;4.850;2022-10-31T22:41:38;17.17;76.72
76040;SHT30;64736;50.462;4.850;2022-10-31T22:44:04;17.10;76.93
76040;SHT30;64736;50.462;4.850;2022-10-31T22:46:35;17.04;77.36
76040;SHT30;64736;50.462;4.850;2022-10-31T22:49:04;17.00;77.81
76040;SHT30;64736;50.462;4.850;2022-10-31T22:51:35;16.94;78.12
76040;SHT30;64736;50.462;4.850;2022-10-31T22:54:02;16.88;78.94
76040;SHT30;64736;50.462;4.850;2022-10-31T22:56:31;16.86;78.80
76040;SHT30;64736;50.462;4.850;2022-10-31T22:58:57;16.81;79.68
76040;SHT30;64736;50.462;4.850;2022-10-31T23:01:26;16.73;80.24
76040;SHT30;64736;50.462;4.850;2022-10-31T23:03:52;16.65;80.52
76040;SHT30;64736;50.462;4.850;2022-10-31T23:06:21;16.66;80.42
76040;SHT30;64736;50.462;4.850;2022-10-31T23:08:48;16.67;80.42
76040;SHT30;64736;50.462;4.850;2022-10-31T23:11:15;16.60;80.55
76040;SHT30;64736;50.462;4.850;2022-10-31T23:13:40;16.63;80.73
76040;SHT30;64736;50.462;4.850;2022-10-31T23:16:24;16.72;80.29
76040;SHT30;64736;50.462;4.850;2022-10-31T23:18:50;16.69;80.40
76040;SHT30;64736;50.462;4.850;2022-10-31T23:21:16;16.74;80.22
76040;SHT30;64736;50.462;4.850;2022-10-31T23:24:02;16.74;80.03
76040;SHT30;64736;50.462;4.850;2022-10-31T23:26:27;16.69;80.28
76040;SHT30;64736;50.462;4.850;2022-10-31T23:29:11;16.73;80.17
76040;SHT30;64736;50.462;4.850;2022-10-31T23:31:37;16.74;80.14
76040;SHT30;64736;50.462;4.850;2022-10-31T23:34:02;16.66;80.21
76040;SHT30;64736;50.462;4.850;2022-10-31T23:36:28;16.66;80.36
76040;SHT30;64736;50.462;4.850;2022-10-31T23:38:54;16.60;80.34
76040;SHT30;64736;50.462;4.850;2022-10-31T23:41:19;16.56;80.48
76040;SHT30;64736;50.462;4.850;2022-10-31T23:43:45;16.67;80.22
76040;SHT30;64736;50.462;4.850;2022-10-31T23:46:13;16.63;80.41
76040;SHT30;64736;50.462;4.850;2022-10-31T23:48:38;16.59;80.57
76040;SHT30;64736;50.462;4.850;2022-10-31T23:51:04;16.60;80.50
76040;SHT30;64736;50.462;4.850;2022-10-31T23:53:30;16.69;80.23
76040;SHT30;64736;50.462;4.850;2022-10-31T23:55:55;16.69;80.12
76040;SHT30;64736;50.462;4.850;2022-10-31T23:58:21;16.74;79.87
